Phoenix, AZ (85062)

1:33 AM MST on July 24, 2016 (GMT -0700)
Video West, Inc. AWOS | | Change Station

Elev 1207 ft 33.46 °N, 111.97 °W | Updated 31 seconds ago

Partly Cloudy
Partly Cloudy
94.5 °F
Feels Like 93 °F
N
6.8
Wind Variable Wind from South
Gusts 9.0 mph

Today
High -- | Low -- °F
--% Chance of Precip.
Yesterday
High -- | Low -- °F
Precip. -- in
Pressure 29.69 in
Visibility 10.0 miles
Clouds Few 20000 ft
Heat Index 93 °F
Dew Point 57 °F
Humidity 29%
Rainfall 0.00 in
Snow Depth Not available.
5:35 AM 7:33 PM
Waning Gibbous, 78% visible
METAR KPHX 240751Z 28012KT 10SM FEW200 37/14 A2976 RMK AO2 SLP053 T03670139
Pressure 29.69 in
Visibility 10.0 miles
Clouds Few 20000 ft
Heat Index 93 °F
Dew Point 57 °F
Humidity 29%
Rainfall 0.00 in
Snow Depth Not available.
5:35 AM 7:33 PM
Waning Gibbous, 78% visible
METAR KPHX 240751Z 28012KT 10SM FEW200 37/14 A2976 RMK AO2 SLP053 T03670139

10-Day Weather Forecast

Almanac

Astronomy

Jul. 24, 2016 Rise Set
Actual Time
Civil Twilight
Nautical Twilight
Astronomical Twilight
Moon
Length of Visible Light
Length of Day
Tomorrow will be .
, % of the Moon is Illuminated

Today's Extremes

State Highs State Lows

Community

WunderPhotos

Upload Photos

1,927,041 photos uploaded!

WunderBlog® & News

Nearby

Air Quality

  Air Quality AQ Index Pollutant
Not available.

Snow Depth

Station Depth Elevation

Earthquake Activity

City Distance Mag. Time & Date
Minimum magnitude displayed is 2.5.

Coastal Water Temperatures

Place Temperature

Stations

Nearby Weather Stations

Station Location Temp. Windchill Dew Point Humidity Wind Precip. Elev Updated Type
                   

Watches & Warnings

There are currently no watches in effect.